< < Back
Terminal Aerodrome Forecast


Current Version              Previous Versions:   1  2  3  4  5  6  7  8  9  

Terminal Aerodrome Forecast

768
FTUS42 KGSP 010539
TAFAVL
TAF
KAVL 010539Z 0106/0206 00000KT P6SM BKN100
     FM011500 18009KT P6SM BKN200
     FM012300 17006KT 4SM -RA OVC025
     FM020100 17007KT 2SM -RA OVC008 WS020/20040KT
     FM020300 18009G17KT 1SM -RA BR OVC007 WS020/20040KT=

Latest METAR

731
SAUS70 KWBC 011800 RRQ
MTRAVL
METAR KAVL 011754Z 19008KT 10SM BKN019 OVC024 08/02 A3010 RMK AO2
RAB26E50 SLP196 P0000 60000 T00780022 10078 20011 58021


USA.gov is the U.S. government's official web portal to all federal, state and local government web resources and services.